Search for airport 
image banner adimage banner adimage banner ad
image banner ad

1C9 - Frazier Lake Airpark

Located in Hollister, United States

ICAO - 1C9, IATA -

Data provided by Airmate  

General information

Coordinates: N36°57'10" W121°27'46"
Elevation is 152 feet MSL.
Magnetic variation is 15° East
View others Airports in California

Operational data

Special qualification required
Current time UTC:
Current local time:
Weather at : KCVH - Hollister Muni ( 8 km )
METAR: KCVH 221255Z AUTO 00000KT 10SM SCT016 BKN021 14/12 A2994 RMK A01
View NOTAMs / SUP AIP / TFR affecting this airport [VIEW]
Communications frequencies: [VIEW]

Runways:

RWY identifierQFULength (ft)Width (ft)SurfaceLDA (ft)
0565°2500100GRASS
23245°2500100GRASS

Airport contact information

Address: Hollister United States

Satellite view of 1C9